Time;durP1;ratioP1;P1;durP2;ratioP2;P2;SDS_P1;SDS_P2;PMS_P1;PMS_P2;Temp;Humidity;BMP_temperature;BMP_pressure;BME280_temperature;BME280_humidity;BME280_pressure;Samples;Min_cycle;Max_cycle;Signal;HPM_P1;HPM_P2
2023/03/23 00:00:51;;;;;;;;;;;8.50;92.70;;;;;;5030188;28;19905;-75
2023/03/23 00:03:17;;;;;;;;;;;8.50;92.70;;;;;;5028584;28;19917;-75
2023/03/23 00:05:49;;;;;;;;;;;8.60;92.70;;;;;;5028786;28;20273;-75
2023/03/23 00:08:20;;;;;;;;;;;8.60;92.70;;;;;;5030181;28;19909;-75
2023/03/23 00:10:56;;;;;;;;;;;8.70;92.70;;;;;;5029973;28;19905;-75
2023/03/23 00:13:25;;;;;;;;;;;8.70;92.70;;;;;;5029924;28;19913;-75
2023/03/23 00:15:51;;;;;;;;;;;8.80;92.70;;;;;;5030069;28;19935;-76
2023/03/23 00:18:21;;;;;;;;;;;8.80;92.70;;;;;;5029951;28;19932;-75
2023/03/23 00:20:54;;;;;;;;;;;8.90;92.70;;;;;;5029817;28;19905;-75
2023/03/23 00:23:20;;;;;;;;;;;8.90;92.70;;;;;;5029805;28;20254;-76
2023/03/23 00:25:52;;;;;;;;;;;9.00;92.70;;;;;;5029799;28;20078;-75
2023/03/23 00:28:24;;;;;;;;;;;9.00;92.70;;;;;;5029848;28;20281;-76
2023/03/23 00:31:05;;;;;;;;;;;9.00;92.70;;;;;;5029564;28;19915;-75
2023/03/23 00:33:37;;;;;;;;;;;9.00;92.80;;;;;;5028534;28;19912;-75
2023/03/23 00:36:04;;;;;;;;;;;9.00;92.60;;;;;;5029680;28;20356;-75
2023/03/23 00:38:29;;;;;;;;;;;9.00;92.60;;;;;;5029971;28;19976;-75
2023/03/23 00:40:57;;;;;;;;;;;9.00;92.70;;;;;;5028052;28;19945;-75
2023/03/23 00:43:24;;;;;;;;;;;9.00;92.70;;;;;;5029670;28;19905;-76
2023/03/23 00:45:52;;;;;;;;;;;9.00;92.70;;;;;;5029540;28;19909;-74
2023/03/23 00:48:24;;;;;;;;;;;8.90;92.70;;;;;;5029328;28;19909;-75
2023/03/23 00:50:50;;;;;;;;;;;9.00;92.80;;;;;;5029290;28;19916;-74
2023/03/23 00:53:17;;;;;;;;;;;9.00;92.80;;;;;;5028113;28;20385;-75
2023/03/23 00:55:42;;;;;;;;;;;9.00;92.80;;;;;;5029272;28;19909;-75
2023/03/23 00:58:09;;;;;;;;;;;9.10;92.80;;;;;;5027634;28;19920;-75
2023/03/23 01:00:35;;;;;;;;;;;9.10;92.80;;;;;;5029093;28;19905;-75
2023/03/23 01:03:00;;;;;;;;;;;9.10;92.70;;;;;;5028958;28;19921;-74
2023/03/23 01:05:31;;;;;;;;;;;9.10;92.70;;;;;;5029016;28;19913;-75
2023/03/23 01:08:00;;;;;;;;;;;9.10;92.70;;;;;;5029073;28;19913;-75
2023/03/23 01:10:32;;;;;;;;;;;9.10;92.70;;;;;;5028900;28;19912;-75
2023/03/23 01:13:00;;;;;;;;;;;9.10;92.70;;;;;;5028817;28;19919;-74
2023/03/23 01:15:27;;;;;;;;;;;9.10;92.80;;;;;;5028783;28;20380;-75
2023/03/23 01:17:53;;;;;;;;;;;9.10;92.80;;;;;;5028893;28;20326;-75
2023/03/23 01:20:19;;;;;;;;;;;9.10;92.80;;;;;;5028670;28;19987;-75
2023/03/23 01:22:44;;;;;;;;;;;9.10;92.80;;;;;;5029021;28;19928;-74
2023/03/23 01:25:11;;;;;;;;;;;9.10;92.70;;;;;;5028627;28;19916;-75
2023/03/23 01:27:37;;;;;;;;;;;9.20;92.80;;;;;;5028602;28;20401;-76
2023/03/23 01:30:04;;;;;;;;;;;9.20;92.80;;;;;;5028497;28;20003;-75
2023/03/23 01:32:29;;;;;;;;;;;9.20;92.70;;;;;;5028371;28;20341;-75
2023/03/23 01:34:55;;;;;;;;;;;9.20;92.70;;;;;;5028486;28;19916;-75
2023/03/23 01:37:25;;;;;;;;;;;9.20;92.70;;;;;;5028535;28;19905;-75
2023/03/23 01:39:54;;;;;;;;;;;9.10;92.60;;;;;;5028396;28;19909;-75
2023/03/23 01:42:21;;;;;;;;;;;9.10;92.60;;;;;;5028444;28;19928;-76
2023/03/23 01:44:47;;;;;;;;;;;9.00;92.60;;;;;;5027026;28;20221;-75
2023/03/23 01:47:12;;;;;;;;;;;9.00;92.60;;;;;;5028433;28;19905;-76
2023/03/23 01:49:41;;;;;;;;;;;8.90;92.60;;;;;;5028319;28;19912;-75
2023/03/23 01:52:10;;;;;;;;;;;8.80;92.60;;;;;;5026872;28;19915;-75
2023/03/23 01:54:36;;;;;;;;;;;8.80;92.60;;;;;;5028515;28;19909;-75
2023/03/23 01:57:03;;;;;;;;;;;8.70;92.60;;;;;;5028334;28;19916;-75
2023/03/23 01:59:30;;;;;;;;;;;8.70;92.60;;;;;;5028139;28;20004;-75
2023/03/23 02:01:56;;;;;;;;;;;8.70;92.70;;;;;;5028102;28;19960;-76
2023/03/23 02:04:23;;;;;;;;;;;8.70;92.70;;;;;;5026821;28;20392;-76
2023/03/23 02:06:50;;;;;;;;;;;8.60;92.70;;;;;;5028058;28;19912;-75
2023/03/23 02:09:19;;;;;;;;;;;8.70;92.70;;;;;;5026656;28;19913;-75
2023/03/23 02:11:45;;;;;;;;;;;8.70;92.70;;;;;;5027491;28;19916;-75
2023/03/23 02:14:11;;;;;;;;;;;8.70;92.70;;;;;;5026655;28;20353;-75
2023/03/23 02:16:56;;;;;;;;;;;8.70;92.70;;;;;;5028210;28;19909;-75
2023/03/23 02:19:27;;;;;;;;;;;8.70;92.70;;;;;;5027929;28;19944;-76
2023/03/23 02:21:53;;;;;;;;;;;8.60;92.60;;;;;;5027947;28;19909;-75
2023/03/23 02:24:29;;;;;;;;;;;8.60;92.70;;;;;;5028374;28;19909;-75
2023/03/23 02:27:02;;;;;;;;;;;8.60;92.90;;;;;;5027945;28;19906;-75
2023/03/23 02:29:44;;;;;;;;;;;8.60;92.70;;;;;;5027753;28;20017;-76
2023/03/23 02:32:17;;;;;;;;;;;8.70;92.80;;;;;;5026450;28;19909;-76
2023/03/23 02:34:45;;;;;;;;;;;8.70;92.70;;;;;;5026473;28;19905;-75
2023/03/23 02:37:21;;;;;;;;;;;8.70;92.70;;;;;;5027717;28;19920;-75
2023/03/23 02:39:49;;;;;;;;;;;8.70;92.70;;;;;;5027811;28;19940;-75
2023/03/23 02:42:17;;;;;;;;;;;8.70;92.70;;;;;;5027782;28;19916;-76
2023/03/23 02:44:44;;;;;;;;;;;8.80;92.70;;;;;;5026450;28;20283;-75
2023/03/23 02:47:15;;;;;;;;;;;8.80;92.70;;;;;;5027596;28;19958;-74
2023/03/23 02:49:42;;;;;;;;;;;8.80;92.70;;;;;;5026308;28;19914;-75
2023/03/23 02:52:12;;;;;;;;;;;8.80;92.70;;;;;;5026136;28;19916;-75
2023/03/23 02:54:38;;;;;;;;;;;8.80;92.70;;;;;;5027739;28;19916;-75
2023/03/23 02:57:04;;;;;;;;;;;8.70;92.70;;;;;;5026300;28;20271;-74
2023/03/23 02:59:32;;;;;;;;;;;8.70;92.70;;;;;;5026200;28;20003;-75
2023/03/23 03:01:57;;;;;;;;;;;8.70;92.80;;;;;;5027366;28;19923;-74
2023/03/23 03:04:24;;;;;;;;;;;8.80;92.80;;;;;;5027567;28;19909;-74
2023/03/23 03:07:09;;;;;;;;;;;8.80;92.80;;;;;;5027582;28;19909;-74
2023/03/23 03:09:38;;;;;;;;;;;8.80;92.80;;;;;;5026108;28;19905;-74
2023/03/23 03:12:10;;;;;;;;;;;8.80;92.80;;;;;;5027335;28;19916;-74
2023/03/23 03:14:42;;;;;;;;;;;8.80;92.70;;;;;;5027245;28;19915;-75
2023/03/23 03:17:19;;;;;;;;;;;8.80;92.70;;;;;;5027308;28;19913;-74
2023/03/23 03:19:46;;;;;;;;;;;8.80;92.70;;;;;;5027351;28;19905;-74
2023/03/23 03:22:13;;;;;;;;;;;8.80;92.70;;;;;;5026176;28;19909;-75
2023/03/23 03:24:40;;;;;;;;;;;8.80;92.80;;;;;;5029321;28;20309;-74
2023/03/23 03:27:10;;;;;;;;;;;8.80;92.80;;;;;;5029697;28;19936;-74
2023/03/23 03:29:37;;;;;;;;;;;8.80;92.70;;;;;;5029474;28;19909;-75
2023/03/23 03:32:05;;;;;;;;;;;8.80;92.70;;;;;;5030749;28;19978;-74
2023/03/23 03:34:31;;;;;;;;;;;8.80;92.80;;;;;;5031104;28;19909;-75
2023/03/23 03:36:58;;;;;;;;;;;8.80;92.80;;;;;;5030780;28;19997;-75
2023/03/23 03:39:24;;;;;;;;;;;8.80;92.80;;;;;;5029331;28;20357;-74
2023/03/23 03:41:49;;;;;;;;;;;8.70;92.70;;;;;;5029421;28;20012;-76
2023/03/23 03:44:15;;;;;;;;;;;8.70;92.80;;;;;;5029404;28;20339;-75
2023/03/23 03:46:41;;;;;;;;;;;8.70;92.80;;;;;;5030678;28;19909;-75
2023/03/23 03:49:07;;;;;;;;;;;8.70;92.80;;;;;;5030600;28;20024;-74
2023/03/23 03:51:34;;;;;;;;;;;8.70;92.80;;;;;;5030386;28;20277;-75
2023/03/23 03:54:00;;;;;;;;;;;8.70;92.80;;;;;;5030419;28;19913;-75
2023/03/23 03:56:26;;;;;;;;;;;8.70;92.80;;;;;;5030563;28;19963;-75
2023/03/23 03:58:52;;;;;;;;;;;8.70;92.80;;;;;;5030320;28;19952;-75
2023/03/23 04:01:18;;;;;;;;;;;8.70;92.70;;;;;;5030281;28;19915;-74
2023/03/23 04:03:44;;;;;;;;;;;8.60;92.70;;;;;;5028894;28;19952;-74
2023/03/23 04:06:10;;;;;;;;;;;8.50;92.80;;;;;;5030247;28;19909;-74
2023/03/23 04:08:37;;;;;;;;;;;8.50;92.80;;;;;;5028874;28;19957;-74
2023/03/23 04:11:04;;;;;;;;;;;8.50;92.80;;;;;;5012548;28;20062;-74
2023/03/23 04:13:29;;;;;;;;;;;8.50;92.80;;;;;;5030397;28;20277;-74
2023/03/23 04:15:55;;;;;;;;;;;8.50;92.80;;;;;;5030125;28;19910;-74
2023/03/23 04:18:21;;;;;;;;;;;8.50;92.80;;;;;;5029880;28;20365;-74
2023/03/23 04:20:48;;;;;;;;;;;8.50;92.80;;;;;;5029845;28;20003;-74
2023/03/23 04:23:14;;;;;;;;;;;8.40;92.80;;;;;;5029793;28;19911;-74
2023/03/23 04:25:41;;;;;;;;;;;8.50;92.90;;;;;;5028470;28;19909;-74
2023/03/23 04:28:09;;;;;;;;;;;8.50;92.90;;;;;;5029788;28;19916;-74
2023/03/23 04:30:36;;;;;;;;;;;8.50;92.80;;;;;;5030007;28;20346;-74
2023/03/23 04:33:02;;;;;;;;;;;8.50;92.80;;;;;;5029743;28;20420;-74
2023/03/23 04:35:29;;;;;;;;;;;8.50;92.90;;;;;;5027920;28;20016;-74
2023/03/23 04:37:55;;;;;;;;;;;8.50;92.90;;;;;;5029692;28;19904;-74
2023/03/23 04:40:20;;;;;;;;;;;8.60;92.90;;;;;;5029884;28;19915;-74
2023/03/23 04:42:46;;;;;;;;;;;8.60;92.90;;;;;;5028459;28;20008;-75
2023/03/23 04:45:16;;;;;;;;;;;8.60;92.80;;;;;;5029535;28;19935;-74
2023/03/23 04:47:41;;;;;;;;;;;8.50;92.80;;;;;;5029416;28;19905;-74
2023/03/23 04:50:08;;;;;;;;;;;8.50;92.80;;;;;;5029255;28;20070;-75
2023/03/23 04:52:34;;;;;;;;;;;8.40;92.80;;;;;;5029300;28;20257;-75
2023/03/23 04:54:59;;;;;;;;;;;8.40;92.80;;;;;;5029580;28;19936;-74
2023/03/23 04:57:28;;;;;;;;;;;8.40;92.90;;;;;;5029320;28;19964;-74
2023/03/23 04:59:54;;;;;;;;;;;8.40;92.90;;;;;;5029136;28;19905;-75
2023/03/23 05:02:19;;;;;;;;;;;8.30;92.90;;;;;;5027728;28;19925;-74
2023/03/23 05:04:45;;;;;;;;;;;8.30;92.90;;;;;;5029130;28;19909;-74
2023/03/23 05:07:11;;;;;;;;;;;8.30;92.90;;;;;;5028933;28;20273;-74
2023/03/23 05:09:36;;;;;;;;;;;8.30;92.90;;;;;;5028932;28;19905;-74
2023/03/23 05:12:09;;;;;;;;;;;8.30;92.90;;;;;;5028912;28;19909;-74
2023/03/23 05:14:35;;;;;;;;;;;8.30;92.90;;;;;;5027555;28;19967;-74
2023/03/23 05:17:00;;;;;;;;;;;8.30;92.90;;;;;;5028977;28;19909;-74
2023/03/23 05:19:27;;;;;;;;;;;8.30;92.90;;;;;;5029158;28;19940;-74
2023/03/23 05:21:53;;;;;;;;;;;8.20;92.90;;;;;;5028882;28;19948;-74
2023/03/23 05:24:19;;;;;;;;;;;8.20;92.90;;;;;;5028749;28;20361;-75
2023/03/23 05:26:48;;;;;;;;;;;8.20;92.90;;;;;;5028769;28;20054;-74
2023/03/23 05:29:14;;;;;;;;;;;8.20;92.90;;;;;;5029198;28;19909;-75
2023/03/23 05:31:39;;;;;;;;;;;8.20;92.90;;;;;;5028494;28;19944;-74
2023/03/23 05:34:05;;;;;;;;;;;8.20;92.90;;;;;;5028626;28;19960;-74
2023/03/23 05:36:31;;;;;;;;;;;8.20;92.90;;;;;;5027338;28;19909;-74
2023/03/23 05:38:59;;;;;;;;;;;8.20;92.90;;;;;;5027353;28;19953;-75
2023/03/23 05:41:25;;;;;;;;;;;8.20;92.90;;;;;;5028803;28;19967;-74
2023/03/23 05:43:51;;;;;;;;;;;8.20;92.90;;;;;;5028480;28;19905;-74
2023/03/23 05:46:17;;;;;;;;;;;8.20;92.90;;;;;;5027682;28;19909;-72
2023/03/23 05:48:43;;;;;;;;;;;8.20;92.90;;;;;;5028218;28;19909;-74
2023/03/23 05:51:09;;;;;;;;;;;8.20;92.90;;;;;;5028181;28;19909;-74
2023/03/23 05:53:35;;;;;;;;;;;8.30;92.90;;;;;;5028105;28;19955;-75
2023/03/23 05:56:01;;;;;;;;;;;8.30;92.90;;;;;;5026879;28;19909;-74
2023/03/23 05:58:27;;;;;;;;;;;8.30;92.90;;;;;;5028135;28;19905;-75
2023/03/23 06:00:52;;;;;;;;;;;8.30;92.90;;;;;;5027888;28;20007;-74
2023/03/23 06:03:18;;;;;;;;;;;8.30;93.00;;;;;;5027859;28;19921;-74
2023/03/23 06:05:44;;;;;;;;;;;8.30;93.00;;;;;;5028069;28;19920;-75
2023/03/23 06:08:11;;;;;;;;;;;8.30;92.90;;;;;;5028053;28;19964;-74
2023/03/23 06:10:36;;;;;;;;;;;8.30;92.90;;;;;;5027868;28;19952;-74
2023/03/23 06:13:02;;;;;;;;;;;8.30;92.90;;;;;;5027849;28;19948;-75
2023/03/23 06:15:31;;;;;;;;;;;8.30;92.90;;;;;;5027836;28;19920;-74
2023/03/23 06:18:00;;;;;;;;;;;8.30;92.90;;;;;;5027861;28;19909;-74
2023/03/23 06:20:25;;;;;;;;;;;8.30;92.90;;;;;;5027857;28;19981;-74
2023/03/23 06:22:52;;;;;;;;;;;8.30;92.90;;;;;;5028126;28;19951;-74
2023/03/23 06:25:17;;;;;;;;;;;8.30;92.90;;;;;;5027862;28;20003;-74
2023/03/23 06:27:43;;;;;;;;;;;8.30;92.90;;;;;;5027796;28;20051;-74
2023/03/23 06:30:09;;;;;;;;;;;8.30;92.90;;;;;;5027708;28;19952;-74
2023/03/23 06:32:35;;;;;;;;;;;8.30;92.90;;;;;;5026451;28;20280;-75
2023/03/23 06:35:01;;;;;;;;;;;8.30;92.90;;;;;;5027642;28;19916;-74
2023/03/23 06:37:27;;;;;;;;;;;8.30;92.90;;;;;;5027793;28;19909;-74
2023/03/23 06:39:52;;;;;;;;;;;8.30;93.00;;;;;;5027631;28;19916;-74
2023/03/23 06:42:18;;;;;;;;;;;8.30;93.00;;;;;;5027701;28;19915;-74
2023/03/23 06:44:43;;;;;;;;;;;8.30;93.00;;;;;;5026523;28;19913;-74
2023/03/23 06:47:09;;;;;;;;;;;8.30;93.00;;;;;;5027668;28;19953;-75
2023/03/23 06:49:35;;;;;;;;;;;8.30;93.00;;;;;;5026261;28;20280;-75
2023/03/23 06:52:01;;;;;;;;;;;8.30;93.00;;;;;;5027466;28;19905;-74
2023/03/23 06:54:27;;;;;;;;;;;8.40;93.00;;;;;;5027935;28;20288;-73
2023/03/23 06:56:53;;;;;;;;;;;8.40;93.00;;;;;;5027587;28;19920;-74
2023/03/23 06:59:19;;;;;;;;;;;8.40;93.00;;;;;;5030579;28;19905;-73
2023/03/23 07:01:46;;;;;;;;;;;8.40;93.00;;;;;;5031506;28;19933;-73
2023/03/23 07:04:12;;;;;;;;;;;8.40;93.00;;;;;;5031178;28;19913;-74
2023/03/23 07:06:37;;;;;;;;;;;8.50;93.00;;;;;;5031278;28;19967;-74
2023/03/23 07:09:03;;;;;;;;;;;8.50;93.10;;;;;;5031209;28;20324;-74
2023/03/23 07:11:29;;;;;;;;;;;8.60;93.10;;;;;;5029257;28;19910;-74
2023/03/23 07:13:54;;;;;;;;;;;8.60;93.10;;;;;;5030856;28;19920;-74
2023/03/23 07:16:20;;;;;;;;;;;8.70;93.10;;;;;;5030888;28;20009;-73
2023/03/23 07:18:45;;;;;;;;;;;8.80;93.10;;;;;;5030900;28;20273;-74
2023/03/23 07:21:11;;;;;;;;;;;8.90;93.20;;;;;;5029573;28;19913;-73
2023/03/23 07:23:37;;;;;;;;;;;9.00;93.20;;;;;;5030750;28;19913;-75
2023/03/23 07:26:03;;;;;;;;;;;9.10;93.20;;;;;;5030729;28;19909;-73
2023/03/23 07:28:28;;;;;;;;;;;9.20;93.20;;;;;;5030071;28;19909;-75
2023/03/23 07:30:54;;;;;;;;;;;9.30;93.20;;;;;;5030476;28;20284;-74
2023/03/23 07:33:19;;;;;;;;;;;9.40;93.20;;;;;;5030601;28;19917;-75
2023/03/23 07:35:45;;;;;;;;;;;9.40;93.20;;;;;;5030864;28;20119;-76
2023/03/23 07:38:11;;;;;;;;;;;9.60;93.30;;;;;;5030497;28;19916;-74
2023/03/23 07:40:37;;;;;;;;;;;9.70;93.30;;;;;;5029199;28;19910;-75
2023/03/23 07:43:03;;;;;;;;;;;9.80;93.40;;;;;;5031297;28;19916;-75
2023/03/23 07:45:29;;;;;;;;;;;10.10;93.50;;;;;;5030276;28;20313;-75
2023/03/23 07:47:55;;;;;;;;;;;10.60;93.60;;;;;;5029077;28;19909;-75
2023/03/23 07:50:23;;;;;;;;;;;10.90;93.40;;;;;;5030254;28;19924;-75
2023/03/23 07:52:49;;;;;;;;;;;11.20;93.30;;;;;;5029937;28;19909;-76
2023/03/23 07:55:17;;;;;;;;;;;11.50;93.40;;;;;;5029694;28;20288;-75
2023/03/23 07:57:46;;;;;;;;;;;11.60;93.10;;;;;;5029714;28;19909;-75
2023/03/23 08:00:18;;;;;;;;;;;11.70;93.20;;;;;;5029479;28;20012;-75
2023/03/23 08:02:44;;;;;;;;;;;12.00;93.50;;;;;;5029798;28;19927;-76
2023/03/23 08:05:10;;;;;;;;;;;12.30;93.30;;;;;;5029920;28;19996;-76
2023/03/23 08:07:35;;;;;;;;;;;12.50;93.30;;;;;;5030168;28;19926;-76
2023/03/23 08:10:01;;;;;;;;;;;12.90;93.70;;;;;;5027488;28;19915;-76
2023/03/23 08:12:27;;;;;;;;;;;13.50;93.60;;;;;;5028546;28;19991;-76
2023/03/23 08:14:53;;;;;;;;;;;13.60;93.10;;;;;;5028325;28;19952;-76
2023/03/23 08:17:19;;;;;;;;;;;13.70;93.10;;;;;;5030007;28;19944;-76
2023/03/23 08:19:45;;;;;;;;;;;13.70;93.00;;;;;;5029548;28;20411;-76
2023/03/23 08:22:11;;;;;;;;;;;13.70;93.10;;;;;;5029625;28;20354;-75
2023/03/23 08:24:36;;;;;;;;;;;13.70;93.50;;;;;;5029747;28;19909;-75
2023/03/23 08:27:02;;;;;;;;;;;14.20;94.00;;;;;;5011646;28;20004;-75
2023/03/23 08:29:28;;;;;;;;;;;15.10;94.30;;;;;;5028008;28;19908;-76
2023/03/23 08:31:54;;;;;;;;;;;16.00;94.40;;;;;;5029320;28;19916;-76
2023/03/23 08:34:20;;;;;;;;;;;16.70;94.10;;;;;;5028181;28;19913;-75
2023/03/23 08:36:46;;;;;;;;;;;17.40;93.80;;;;;;5029119;28;19920;-76
2023/03/23 08:39:14;;;;;;;;;;;17.90;93.60;;;;;;5029019;28;19948;-76
2023/03/23 08:41:40;;;;;;;;;;;18.30;93.40;;;;;;5027133;28;20430;-76
2023/03/23 08:44:05;;;;;;;;;;;18.50;93.30;;;;;;5029018;28;19913;-76
2023/03/23 08:46:31;;;;;;;;;;;18.70;93.40;;;;;;5029028;28;20661;-76
2023/03/23 08:48:56;;;;;;;;;;;19.10;93.60;;;;;;5028808;28;19916;-77
2023/03/23 08:51:22;;;;;;;;;;;19.40;93.30;;;;;;5028841;28;20357;-76
2023/03/23 08:53:48;;;;;;;;;;;19.60;93.40;;;;;;5028518;28;20280;-74
2023/03/23 08:56:13;;;;;;;;;;;19.90;93.40;;;;;;5028979;28;19914;-74
2023/03/23 08:58:39;;;;;;;;;;;20.20;93.50;;;;;;5028523;28;19952;-77
2023/03/23 09:01:09;;;;;;;;;;;20.40;93.40;;;;;;5029181;28;19909;-75
2023/03/23 09:03:35;;;;;;;;;;;20.60;93.50;;;;;;5037745;28;20028;-75
2023/03/23 09:06:02;;;;;;;;;;;20.90;93.40;;;;;;5039059;28;20258;-75
2023/03/23 09:08:28;;;;;;;;;;;21.00;93.30;;;;;;5040694;28;19913;-75
2023/03/23 09:11:00;;;;;;;;;;;21.10;93.30;;;;;;5037813;28;19909;-75
2023/03/23 09:13:26;;;;;;;;;;;21.20;93.60;;;;;;5037771;28;19918;-76
2023/03/23 09:15:52;;;;;;;;;;;21.30;93.40;;;;;;5038251;28;19913;-76
2023/03/23 09:18:18;;;;;;;;;;;21.30;93.30;;;;;;5040147;28;19913;-76
2023/03/23 09:20:43;;;;;;;;;;;21.40;93.40;;;;;;5044063;28;20335;-77
2023/03/23 09:23:09;;;;;;;;;;;21.40;93.20;;;;;;5049169;28;20306;-77
2023/03/23 09:25:35;;;;;;;;;;;21.40;93.40;;;;;;5049278;28;19904;-77
2023/03/23 09:28:00;;;;;;;;;;;21.40;93.40;;;;;;5039535;28;19920;-77
2023/03/23 09:30:27;;;;;;;;;;;21.60;93.70;;;;;;5035477;28;19917;-77
2023/03/23 09:32:54;;;;;;;;;;;21.80;93.40;;;;;;5039375;28;19980;-77
2023/03/23 09:35:21;;;;;;;;;;;21.80;93.30;;;;;;5038945;28;20276;-77
2023/03/23 09:37:47;;;;;;;;;;;22.00;93.70;;;;;;5038093;28;20004;-77
2023/03/23 09:40:19;;;;;;;;;;;22.30;93.60;;;;;;5039388;28;20003;-79
2023/03/23 09:42:47;;;;;;;;;;;22.20;93.10;;;;;;5037344;28;19905;-78
2023/03/23 09:45:13;;;;;;;;;;;22.10;93.30;;;;;;5038250;28;20050;-77
2023/03/23 09:47:43;;;;;;;;;;;22.30;93.50;;;;;;5048351;28;20011;-78
2023/03/23 09:50:12;;;;;;;;;;;22.40;93.50;;;;;;5045101;28;20392;-77
2023/03/23 09:52:48;;;;;;;;;;;22.50;93.50;;;;;;5045239;28;19956;-77
2023/03/23 09:55:15;;;;;;;;;;;22.60;93.70;;;;;;5037612;28;19995;-76
2023/03/23 09:57:47;;;;;;;;;;;22.90;93.80;;;;;;5046003;28;19905;-77
2023/03/23 10:00:16;;;;;;;;;;;23.10;93.50;;;;;;5048067;28;19989;-75
2023/03/23 10:03:12;;;;;;;;;;;23.10;93.30;;;;;;5047756;28;19916;-75
2023/03/23 10:05:55;;;;;;;;;;;22.90;93.20;;;;;;5046088;28;19908;-74
2023/03/23 10:08:27;;;;;;;;;;;22.60;93.40;;;;;;5035383;28;20003;-75
2023/03/23 10:11:11;;;;;;;;;;;22.60;93.40;;;;;;5035823;28;20261;-74
2023/03/23 10:13:37;;;;;;;;;;;22.50;93.40;;;;;;5034787;28;19958;-75
2023/03/23 10:16:23;;;;;;;;;;;22.60;93.70;;;;;;5046376;28;20365;-75
2023/03/23 10:18:52;;;;;;;;;;;22.90;93.70;;;;;;5036433;28;19909;-75
2023/03/23 10:21:20;;;;;;;;;;;23.00;93.40;;;;;;5028438;28;19920;-74
2023/03/23 10:23:46;;;;;;;;;;;22.90;93.40;;;;;;5028436;28;19905;-74
2023/03/23 10:26:30;;;;;;;;;;;22.90;93.40;;;;;;5030886;28;19924;-75
2023/03/23 10:29:02;;;;;;;;;;;22.80;93.30;;;;;;5039050;28;19958;-75
2023/03/23 10:31:31;;;;;;;;;;;22.90;93.60;;;;;;5046518;28;19909;-75
2023/03/23 10:34:16;;;;;;;;;;;23.20;93.90;;;;;;5050874;28;19913;-75
2023/03/23 10:36:51;;;;;;;;;;;23.70;94.00;;;;;;5048546;28;20003;-75
2023/03/23 10:39:19;;;;;;;;;;;24.20;94.00;;;;;;5038269;28;19947;-75
2023/03/23 10:41:45;;;;;;;;;;;24.60;93.70;;;;;;5040374;28;20500;-75
2023/03/23 10:44:16;;;;;;;;;;;24.50;93.30;;;;;;5042591;28;19955;-73
2023/03/23 10:46:50;;;;;;;;;;;24.40;93.50;;;;;;5032156;28;20296;-74
2023/03/23 10:49:21;;;;;;;;;;;24.90;94.00;;;;;;5031658;28;20360;-73
2023/03/23 10:51:59;;;;;;;;;;;25.20;93.80;;;;;;5034036;28;19987;-74
2023/03/23 10:54:27;;;;;;;;;;;25.00;93.10;;;;;;5041070;28;20353;-73
2023/03/23 10:56:53;;;;;;;;;;;24.50;93.30;;;;;;5051206;28;19968;-74
2023/03/23 10:59:29;;;;;;;;;;;24.00;93.10;;;;;;5032900;28;20357;-75
2023/03/23 11:01:56;;;;;;;;;;;23.10;92.60;;;;;;5030898;28;19920;-73
2023/03/23 11:04:22;;;;;;;;;;;22.00;92.70;;;;;;5032224;28;19958;-76
2023/03/23 11:06:52;;;;;;;;;;;21.10;92.90;;;;;;5032156;28;19909;-74
2023/03/23 11:09:19;;;;;;;;;;;20.90;93.70;;;;;;5031646;28;19971;-76
2023/03/23 11:11:49;;;;;;;;;;;20.90;93.90;;;;;;5031810;28;19905;-75
2023/03/23 11:14:18;;;;;;;;;;;21.00;94.00;;;;;;5032146;28;19913;-76
2023/03/23 11:16:46;;;;;;;;;;;21.20;93.90;;;;;;5032264;28;19905;-78
2023/03/23 11:19:13;;;;;;;;;;;21.40;93.60;;;;;;5032017;28;19940;-78
2023/03/23 11:21:39;;;;;;;;;;;21.20;93.60;;;;;;5032112;28;19905;-77
2023/03/23 11:24:05;;;;;;;;;;;21.40;93.70;;;;;;5030353;28;19929;-76
2023/03/23 11:26:34;;;;;;;;;;;21.30;93.20;;;;;;5031446;28;19913;-76
2023/03/23 11:29:29;;;;;;;;;;;20.70;92.80;;;;;;5031236;28;19905;-77
2023/03/23 11:32:00;;;;;;;;;;;20.00;92.60;;;;;;5027121;28;19963;-74
2023/03/23 11:34:40;;;;;;;;;;;19.00;92.60;;;;;;5031540;28;19930;-76
2023/03/23 11:37:07;;;;;;;;;;;18.20;92.50;;;;;;5031499;28;19913;-75
2023/03/23 11:39:46;;;;;;;;;;;17.40;92.90;;;;;;5030274;28;19905;-75
2023/03/23 11:42:13;;;;;;;;;;;17.00;93.20;;;;;;5031476;28;19925;-75
2023/03/23 11:44:44;;;;;;;;;;;16.80;93.40;;;;;;5030072;28;19912;-72
2023/03/23 11:47:28;;;;;;;;;;;16.70;93.60;;;;;;5031353;28;19944;-78
2023/03/23 11:50:08;;;;;;;;;;;16.90;93.80;;;;;;5031381;28;20313;-77
2023/03/23 11:53:03;;;;;;;;;;;17.20;93.90;;;;;;5030913;28;19909;-77
2023/03/23 11:55:45;;;;;;;;;;;17.50;93.70;;;;;;5025803;28;20330;-77
2023/03/23 11:58:12;;;;;;;;;;;17.80;93.70;;;;;;5030289;28;19905;-77
2023/03/23 12:00:47;;;;;;;;;;;18.20;93.60;;;;;;5031529;28;19908;-76
2023/03/23 12:03:27;;;;;;;;;;;18.30;93.70;;;;;;5031088;28;19921;-76
2023/03/23 12:06:02;;;;;;;;;;;18.80;93.90;;;;;;5030572;28;19905;-77
2023/03/23 12:08:37;;;;;;;;;;;19.40;94.20;;;;;;5030565;28;19971;-77
2023/03/23 12:11:23;;;;;;;;;;;20.00;94.20;;;;;;5030698;28;19922;-76
2023/03/23 12:14:07;;;;;;;;;;;20.30;93.50;;;;;;5034170;28;20353;-70
2023/03/23 12:16:39;;;;;;;;;;;19.70;92.70;;;;;;5037335;28;19913;-77
2023/03/23 12:19:23;;;;;;;;;;;19.60;93.50;;;;;;5045899;28;19912;-73
2023/03/23 12:21:53;;;;;;;;;;;19.70;93.60;;;;;;5050319;28;20368;-75
2023/03/23 12:24:37;;;;;;;;;;;19.90;93.90;;;;;;5050015;28;20292;-74
2023/03/23 12:27:11;;;;;;;;;;;20.20;93.80;;;;;;5050169;28;19905;-75
2023/03/23 12:29:36;;;;;;;;;;;20.20;93.70;;;;;;5050162;28;19911;-77
2023/03/23 12:32:20;;;;;;;;;;;20.30;94.00;;;;;;5048169;28;19991;-76
2023/03/23 12:35:05;;;;;;;;;;;20.70;94.10;;;;;;5050351;28;19962;-76
2023/03/23 12:37:49;;;;;;;;;;;20.70;93.60;;;;;;5050089;28;19905;-75
2023/03/23 12:40:24;;;;;;;;;;;20.30;93.40;;;;;;5050071;28;19911;-73
2023/03/23 12:43:02;;;;;;;;;;;20.00;93.20;;;;;;5050701;28;19908;-73
2023/03/23 12:45:32;;;;;;;;;;;19.90;93.60;;;;;;5049913;28;19919;-76
2023/03/23 12:48:00;;;;;;;;;;;19.80;93.50;;;;;;5050420;28;20538;-79
2023/03/23 12:50:32;;;;;;;;;;;20.00;93.80;;;;;;5049281;28;19904;-76
2023/03/23 12:53:08;;;;;;;;;;;20.30;93.90;;;;;;5050526;28;19968;-74
2023/03/23 12:55:34;;;;;;;;;;;20.30;93.40;;;;;;5049997;28;19919;-76
2023/03/23 12:58:02;;;;;;;;;;;19.90;93.30;;;;;;5049814;28;19916;-76
2023/03/23 13:00:30;;;;;;;;;;;19.80;93.50;;;;;;5049688;28;19967;-74
2023/03/23 13:03:14;;;;;;;;;;;19.80;93.70;;;;;;5049690;28;19920;-78
2023/03/23 13:05:54;;;;;;;;;;;19.70;93.40;;;;;;5049276;28;19909;-77
2023/03/23 13:08:30;;;;;;;;;;;19.30;93.00;;;;;;5049298;28;19920;-76
2023/03/23 13:10:58;;;;;;;;;;;18.80;93.10;;;;;;5049580;28;19909;-75
2023/03/23 13:13:40;;;;;;;;;;;18.90;93.80;;;;;;5048092;28;19912;-73
2023/03/23 13:16:11;;;;;;;;;;;19.00;93.70;;;;;;5049426;28;20249;-73
2023/03/23 13:18:52;;;;;;;;;;;18.90;93.40;;;;;;5047870;28;19904;-75
2023/03/23 13:21:41;;;;;;;;;;;18.90;93.60;;;;;;5048969;28;19904;-75
2023/03/23 13:24:10;;;;;;;;;;;18.80;93.40;;;;;;5048533;28;20467;-75
2023/03/23 13:26:42;;;;;;;;;;;18.60;93.30;;;;;;5047978;28;19916;-74
2023/03/23 13:29:18;;;;;;;;;;;18.60;93.60;;;;;;5031379;28;19909;-75
2023/03/23 13:31:44;;;;;;;;;;;18.70;93.60;;;;;;5029381;28;20272;-75
2023/03/23 13:34:16;;;;;;;;;;;18.80;93.80;;;;;;5028963;28;19909;-75
2023/03/23 13:36:42;;;;;;;;;;;18.90;93.90;;;;;;5037801;28;19913;-74
2023/03/23 13:39:25;;;;;;;;;;;19.10;93.90;;;;;;5040396;28;19904;-74
2023/03/23 13:42:09;;;;;;;;;;;19.20;93.80;;;;;;5036730;28;19906;-73
2023/03/23 13:44:53;;;;;;;;;;;19.20;93.80;;;;;;5036882;28;19905;-75
2023/03/23 13:47:26;;;;;;;;;;;19.30;93.80;;;;;;5039758;28;19995;-74
2023/03/23 13:49:55;;;;;;;;;;;19.30;93.80;;;;;;5040935;28;20554;-74
2023/03/23 13:52:23;;;;;;;;;;;19.20;93.70;;;;;;5035124;28;19996;-74
2023/03/23 13:54:50;;;;;;;;;;;18.90;93.50;;;;;;5044469;28;19963;-73
2023/03/23 13:57:20;;;;;;;;;;;18.50;93.40;;;;;;5037019;28;20057;-73
2023/03/23 13:59:55;;;;;;;;;;;18.00;93.20;;;;;;5036697;28;19973;-74
2023/03/23 14:02:28;;;;;;;;;;;17.70;93.20;;;;;;5036554;28;19917;-73
2023/03/23 14:04:54;;;;;;;;;;;17.40;93.40;;;;;;5039830;28;20314;-74
2023/03/23 14:07:20;;;;;;;;;;;17.20;93.30;;;;;;5038705;28;19908;-75
2023/03/23 14:09:47;;;;;;;;;;;17.10;93.50;;;;;;5043311;28;19995;-74
2023/03/23 14:12:25;;;;;;;;;;;17.00;93.40;;;;;;5035023;28;19905;-74
2023/03/23 14:14:57;;;;;;;;;;;16.90;93.10;;;;;;5035329;28;19944;-74
2023/03/23 14:17:27;;;;;;;;;;;16.70;93.10;;;;;;5038632;28;20042;-74
2023/03/23 14:19:55;;;;;;;;;;;16.50;93.10;;;;;;5037663;28;19936;-74
2023/03/23 14:22:28;;;;;;;;;;;16.40;93.20;;;;;;5036209;28;20502;-74
2023/03/23 14:25:01;;;;;;;;;;;16.40;93.30;;;;;;5038920;28;19904;-73
2023/03/23 14:27:26;;;;;;;;;;;16.30;93.10;;;;;;5041814;28;19994;-74
2023/03/23 14:29:59;;;;;;;;;;;16.20;93.00;;;;;;5038773;28;20340;-76
2023/03/23 14:32:27;;;;;;;;;;;16.10;93.00;;;;;;5038531;28;20536;-76
2023/03/23 14:34:53;;;;;;;;;;;15.90;92.90;;;;;;5035978;28;19909;-75